Time;durP1;ratioP1;P1;durP2;ratioP2;P2;SDS_P1;SDS_P2;PMS_P1;PMS_P2;Temp;Humidity;BMP_temperature;BMP_pressure;BME280_temperature;BME280_humidity;BME280_pressure;Samples;Min_cycle;Max_cycle;Signal;HPM_P1;HPM_P2
2022/11/06 00:00:14;;;;;;;22.85;7.72;;;;;;;4.27;69.38;101261.97;4976330;28;20061;-72
2022/11/06 00:02:41;;;;;;;22.67;8.25;;;;;;;4.28;69.43;101253.06;4974516;28;20047;-72
2022/11/06 00:07:53;;;;;;;25.35;7.50;;;;;;;4.03;70.39;101253.88;4979383;28;20046;-71
2022/11/06 00:10:20;;;;;;;22.90;7.35;;;;;;;4.06;69.88;101253.66;4994304;28;20066;-71
2022/11/06 00:12:48;;;;;;;18.33;7.72;;;;;;;3.92;70.46;101261.72;4989363;28;20049;-71
2022/11/06 00:15:14;;;;;;;22.77;7.47;;;;;;;4.15;70.29;101252.19;4997269;28;20057;-71
2022/11/06 00:17:41;;;;;;;21.13;7.47;;;;;;;4.00;70.61;101254.94;4999033;28;20046;-71
2022/11/06 00:20:08;;;;;;;27.75;7.50;;;;;;;3.91;71.01;101239.63;4999876;28;21256;-71
2022/11/06 00:22:36;;;;;;;20.55;7.82;;;;;;;3.83;70.86;101250.78;4998193;28;20058;-71
2022/11/06 00:25:03;;;;;;;21.63;7.55;;;;;;;4.09;70.56;101248.16;5000001;28;20046;-71
2022/11/06 00:27:30;;;;;;;30.73;8.73;;;;;;;3.85;70.60;101250.66;4998096;28;20053;-72
2022/11/06 00:29:56;;;;;;;27.77;8.40;;;;;;;3.90;70.80;101248.56;4995164;28;20046;-72
2022/11/06 00:32:23;;;;;;;28.60;7.80;;;;;;;4.00;70.30;101243.47;4995468;28;20069;-72
2022/11/06 00:34:49;;;;;;;24.30;7.95;;;;;;;3.82;70.82;101235.78;4995963;28;20057;-71
2022/11/06 00:37:15;;;;;;;28.15;7.40;;;;;;;3.65;71.44;101254.66;4997185;28;20051;-71
2022/11/06 00:39:42;;;;;;;28.90;7.97;;;;;;;3.79;71.43;101246.63;4997844;28;20422;-71
2022/11/06 00:42:08;;;;;;;34.08;8.65;;;;;;;3.79;70.87;101233.38;4986899;28;20058;-71
2022/11/06 00:44:35;;;;;;;22.30;8.35;;;;;;;3.58;71.63;101253.34;4996519;28;20509;-72
2022/11/06 00:47:01;;;;;;;28.25;8.30;;;;;;;3.75;71.53;101246.94;4996356;28;20043;-72
2022/11/06 00:49:28;;;;;;;25.90;8.90;;;;;;;3.69;71.41;101250.88;4996849;28;20117;-72
2022/11/06 00:51:54;;;;;;;26.83;7.85;;;;;;;3.71;71.41;101250.75;4995505;28;20042;-72
2022/11/06 00:54:20;;;;;;;15.88;7.78;;;;;;;3.63;72.01;101245.97;4995819;28;20050;-71
2022/11/06 00:56:47;;;;;;;21.02;7.95;;;;;;;3.66;71.67;101250.22;4981098;28;20058;-71
2022/11/06 00:59:13;;;;;;;20.73;8.30;;;;;;;3.85;70.96;101253.31;4976947;28;20054;-71
2022/11/06 01:01:43;;;;;;;23.80;7.78;;;;;;;3.82;71.05;101253.53;4995828;28;20053;-71
2022/11/06 01:04:15;;;;;;;26.80;8.57;;;;;;;3.81;71.08;101247.38;4995882;28;20038;-72
2022/11/06 01:06:44;;;;;;;23.45;8.40;;;;;;;3.87;71.04;101243.47;4997112;28;20061;-72
2022/11/06 01:09:13;;;;;;;24.05;7.90;;;;;;;3.81;70.88;101247.38;4996662;28;20073;-71
2022/11/06 01:11:43;;;;;;;20.63;7.38;;;;;;;3.57;71.34;101246.38;4996323;28;20061;-71
2022/11/06 01:14:29;;;;;;;21.17;7.18;;;;;;;3.75;71.14;101245.13;4996565;28;20046;-71
2022/11/06 01:16:56;;;;;;;19.48;7.95;;;;;;;3.63;71.63;101238.84;4995271;28;20046;-72
2022/11/06 01:19:22;;;;;;;22.45;8.15;;;;;;;3.61;71.24;101235.44;4995018;28;20046;-71
2022/11/06 01:21:51;;;;;;;26.92;7.93;;;;;;;3.79;71.12;101244.00;4998198;28;20047;-72
2022/11/06 01:24:23;;;;;;;21.80;7.63;;;;;;;3.91;70.53;101233.50;4997237;28;20054;-72
2022/11/06 01:26:50;;;;;;;13.70;6.88;;;;;;;3.90;70.55;101234.41;4997442;28;20490;-72
2022/11/06 01:29:37;;;;;;;20.67;7.70;;;;;;;3.43;71.99;101235.81;4999792;28;20101;-71
2022/11/06 01:32:03;;;;;;;25.55;7.57;;;;;;;3.57;71.48;101230.44;5001435;28;20046;-72
2022/11/06 01:34:30;;;;;;;23.00;8.00;;;;;;;3.49;71.94;101232.78;5001496;28;20057;-72
2022/11/06 01:36:56;;;;;;;19.88;8.75;;;;;;;3.50;71.51;101227.34;5003598;28;20054;-72
2022/11/06 01:39:23;;;;;;;19.98;8.35;;;;;;;3.61;71.19;101224.81;5003849;28;20046;-70
2022/11/06 01:41:51;;;;;;;21.55;8.38;;;;;;;3.39;71.81;101212.16;5003006;28;20073;-72
2022/11/06 01:44:39;;;;;;;22.95;8.38;;;;;;;3.31;71.65;101213.63;5002056;28;20050;-72
2022/11/06 01:47:23;;;;;;;30.17;9.18;;;;;;;3.43;72.17;101217.25;5002966;28;20046;-72
2022/11/06 01:49:54;;;;;;;21.90;8.15;;;;;;;3.50;71.61;101221.19;5002511;28;20050;-72
2022/11/06 01:52:22;;;;;;;18.80;7.65;;;;;;;3.63;70.90;101201.69;5002984;28;20054;-71
2022/11/06 01:54:52;;;;;;;21.45;8.60;;;;;;;3.46;71.45;101198.47;5002310;28;20038;-72
2022/11/06 01:57:18;;;;;;;22.80;8.27;;;;;;;3.33;71.89;101199.28;5003629;28;20474;-72
2022/11/06 01:59:45;;;;;;;20.88;8.32;;;;;;;3.54;71.99;101191.69;5003295;28;20043;-71
2022/11/06 02:02:14;;;;;;;24.05;8.45;;;;;;;3.56;71.69;101188.97;5003352;28;20065;-71
2022/11/06 02:04:44;;;;;;;18.40;8.75;;;;;;;3.53;71.37;101197.13;5000988;28;20050;-71
2022/11/06 02:07:15;;;;;;;22.95;8.82;;;;;;;3.50;71.02;101192.00;5002820;28;20058;-71
2022/11/06 02:09:42;;;;;;;32.75;9.75;;;;;;;3.38;72.14;101191.03;5002820;28;20050;-71
2022/11/06 02:12:27;;;;;;;24.52;8.55;;;;;;;3.26;71.94;101184.72;5003361;28;20506;-72
2022/11/06 02:15:09;;;;;;;22.77;10.32;;;;;;;3.23;72.92;101189.38;5002140;28;20052;-69
2022/11/06 02:17:45;;;;;;;21.65;8.73;;;;;;;3.22;72.75;101193.00;5003249;28;20068;-72
2022/11/06 02:20:26;;;;;;;15.25;8.13;;;;;;;3.17;73.38;101188.00;5003563;28;20053;-72
2022/11/06 02:23:14;;;;;;;20.65;8.52;;;;;;;3.20;72.95;101185.13;5002987;28;20046;-71
2022/11/06 02:26:07;;;;;;;21.20;8.60;;;;;;;3.11;72.81;101176.00;5003460;28;20050;-71
2022/11/06 02:28:40;;;;;;;35.30;9.60;;;;;;;3.05;73.30;101170.25;5005844;28;20053;-71
2022/11/06 02:31:15;;;;;;;16.17;8.60;;;;;;;3.16;73.31;101167.72;5008207;28;20049;-71
2022/11/06 02:33:53;;;;;;;25.67;10.02;;;;;;;2.95;73.53;101174.44;5009312;28;20050;-71
2022/11/06 02:36:26;;;;;;;24.17;10.65;;;;;;;2.91;74.15;101171.16;5009181;28;20038;-71
2022/11/06 02:38:57;;;;;;;25.10;9.90;;;;;;;3.09;73.42;101177.03;5008789;28;20042;-71
2022/11/06 02:41:38;;;;;;;21.95;10.18;;;;;;;3.00;73.83;101175.00;5005809;28;20133;-71
2022/11/06 02:44:12;;;;;;;24.73;10.38;;;;;;;3.30;73.04;101180.94;5006309;28;20081;-71
2022/11/06 02:46:45;;;;;;;28.60;10.48;;;;;;;3.01;73.23;101174.91;5004954;28;20042;-71
2022/11/06 02:49:46;;;;;;;21.95;10.40;;;;;;;3.20;73.35;101179.84;5006730;28;20050;-71
2022/11/06 02:52:34;;;;;;;24.75;10.68;;;;;;;3.35;72.98;101170.88;5006996;28;20048;-71
2022/11/06 02:55:27;;;;;;;23.15;10.05;;;;;;;3.56;71.79;101165.09;5006756;28;20109;-71
2022/11/06 02:58:07;;;;;;;24.13;10.82;;;;;;;3.29;73.08;101171.28;5005973;28;20061;-71
2022/11/06 03:00:36;;;;;;;23.23;10.48;;;;;;;3.36;72.57;101164.59;5007955;28;20050;-71
2022/11/06 03:03:15;;;;;;;21.65;9.48;;;;;;;3.35;72.14;101160.25;5007089;28;20046;-71
2022/11/06 03:06:08;;;;;;;23.55;9.63;;;;;;;3.37;72.60;101170.75;5008305;28;20100;-71
2022/11/06 03:08:58;;;;;;;26.75;9.98;;;;;;;3.49;72.19;101161.16;5007413;28;20053;-71
2022/11/06 03:11:28;;;;;;;28.33;10.32;;;;;;;3.44;72.43;101168.53;5007066;28;20042;-71
2022/11/06 03:13:57;;;;;;;25.90;9.38;;;;;;;3.66;71.44;101162.66;5008747;28;20034;-71
2022/11/06 03:16:56;;;;;;;22.60;9.93;;;;;;;3.52;71.77;101168.91;5009098;28;20466;-72
2022/11/06 03:20:02;;;;;;;22.42;9.35;;;;;;;3.52;72.20;101163.59;5007996;28;20038;-72
2022/11/06 03:22:39;;;;;;;25.33;9.90;;;;;;;3.55;71.73;101155.41;4999343;28;20049;-71
2022/11/06 03:25:17;;;;;;;19.27;8.82;;;;;;;3.45;71.61;101162.28;5008238;28;20057;-71
2022/11/06 03:28:01;;;;;;;18.33;8.57;;;;;;;3.46;72.30;101161.34;5007412;28;20069;-71
2022/11/06 03:30:30;;;;;;;24.65;10.38;;;;;;;3.47;71.65;101166.53;5000696;28;20054;-71
2022/11/06 03:33:12;;;;;;;15.80;9.20;;;;;;;3.45;72.43;101163.16;5000239;28;20053;-71
2022/11/06 03:35:44;;;;;;;;;;;;;;;3.60;71.98;101162.09;5003539;28;20057;-71
2022/11/06 03:38:16;;;;;;;;;;;;;;;3.30;72.34;101162.34;5002606;28;19922;-71
2022/11/06 03:40:46;;;;;;;24.85;9.65;;;;;;;3.20;73.16;101161.28;5003592;28;19958;-72
2022/11/06 03:43:16;;;;;;;24.40;10.57;;;;;;;3.34;72.56;101160.34;5002981;28;20418;-71
2022/11/06 03:45:45;;;;;;;24.65;11.50;;;;;;;3.30;72.57;101162.34;5001128;28;20052;-71
2022/11/06 03:48:14;;;;;;;19.35;9.57;;;;;;;3.34;73.08;101155.94;5001001;28;20050;-71
2022/11/06 03:51:12;;;;;;;22.27;10.77;;;;;;;3.46;71.80;101159.53;5000280;28;20050;-72
2022/11/06 03:53:47;;;;;;;22.17;9.90;;;;;;;3.50;72.13;101149.56;5003241;28;20053;-71
2022/11/06 03:56:24;;;;;;;16.95;9.52;;;;;;;3.56;71.66;101147.34;5003622;28;20054;-72
2022/11/06 03:58:52;;;;;;;26.83;10.15;;;;;;;3.49;72.10;101145.22;5004154;28;20049;-71
2022/11/06 04:01:24;;;;;;;25.48;10.73;;;;;;;3.37;72.44;101145.09;5004862;28;20572;-72
2022/11/06 04:03:53;;;;;;;;;;;;;;;3.22;72.69;101151.44;5006875;28;20104;-72
2022/11/06 04:06:29;;;;;;;22.00;9.27;;;;;;;3.44;72.25;101156.13;5001070;28;19922;-71
2022/11/06 04:14:37;;;;;;;25.05;9.85;;;;;;;3.38;71.93;101138.00;5001319;28;20045;-71
2022/11/06 04:17:07;;;;;;;15.90;6.88;;;;;;;3.26;72.44;101131.69;5002971;28;20065;-72
2022/11/06 04:19:34;;;;;;;22.83;10.05;;;;;;;3.29;72.65;101138.59;4998577;28;20046;-71
2022/11/06 04:22:22;;;;;;;23.80;10.60;;;;;;;3.03;72.97;101141.22;5001509;28;20052;-71
2022/11/06 04:28:29;;;;;;;25.02;10.38;;;;;;;3.00;73.10;101130.81;5001153;28;20050;-72
2022/11/06 04:31:10;;;;;;;20.05;9.75;;;;;;;3.11;72.75;101132.75;4999829;28;20065;-71
2022/11/06 04:34:09;;;;;;;22.35;10.00;;;;;;;3.13;72.97;101136.13;5000395;28;20046;-71
2022/11/06 04:36:49;;;;;;;21.55;9.65;;;;;;;3.17;72.90;101137.63;4990652;28;20065;-72
2022/11/06 04:39:28;;;;;;;23.40;10.02;;;;;;;3.25;72.34;101137.97;5000630;28;20057;-72
2022/11/06 04:42:22;;;;;;;20.35;9.55;;;;;;;3.51;71.76;101148.63;5000959;28;20050;-71
2022/11/06 04:44:54;;;;;;;22.38;10.02;;;;;;;3.44;71.54;101139.38;5001307;28;20046;-72
2022/11/06 04:47:21;;;;;;;;;;;;;;;3.14;72.59;101149.28;5001455;28;20042;-72
2022/11/06 04:49:51;;;;;;;18.20;9.63;;;;;;;3.03;72.98;101143.84;5001859;28;19921;-72
2022/11/06 04:52:22;;;;;;;23.48;11.38;;;;;;;3.03;72.76;101135.91;5001260;28;20057;-72
2022/11/06 04:54:49;;;;;;;24.02;11.57;;;;;;;3.14;72.57;101137.84;5000553;28;20054;-72
2022/11/06 04:57:16;;;;;;;21.88;10.32;;;;;;;2.93;73.78;101134.81;5001061;28;20077;-72
2022/11/06 04:59:42;;;;;;;26.23;11.27;;;;;;;2.95;73.04;101121.44;5000189;28;20046;-71
2022/11/06 05:02:09;;;;;;;30.30;11.90;;;;;;;2.93;72.83;101129.50;4998687;28;20138;-72
2022/11/06 05:04:36;;;;;;;30.45;10.63;;;;;;;2.90;73.39;101125.25;4996453;28;20057;-73
2022/11/06 05:07:03;;;;;;;23.85;10.63;;;;;;;2.90;73.54;101109.34;4998911;28;20042;-71
2022/11/06 05:09:29;;;;;;;28.50;10.77;;;;;;;2.95;73.57;101122.28;4999422;28;20042;-69
2022/11/06 05:11:56;;;;;;;25.40;11.45;;;;;;;3.07;72.58;101116.19;4999936;28;20053;-72
2022/11/06 05:14:23;;;;;;;25.10;10.65;;;;;;;3.13;72.31;101110.47;4999593;28;20038;-70
2022/11/06 05:16:49;;;;;;;27.05;11.80;;;;;;;3.04;72.76;101107.59;4998886;28;20050;-72
2022/11/06 05:19:16;;;;;;;24.45;10.90;;;;;;;3.25;71.80;101111.44;5000718;28;20054;-72
2022/11/06 05:24:27;;;;;;;26.13;11.07;;;;;;;3.41;71.42;101124.50;4997963;28;20180;-72
2022/11/06 05:26:53;;;;;;;25.73;10.00;;;;;;;3.39;71.43;101114.00;5005297;28;20043;-72
2022/11/06 05:29:25;;;;;;;24.08;9.80;;;;;;;3.30;71.55;101114.63;5002754;28;20070;-72
2022/11/06 05:31:52;;;;;;;24.70;11.65;;;;;;;3.13;71.67;101117.56;5001744;28;20490;-72
2022/11/06 05:34:18;;;;;;;23.23;10.70;;;;;;;3.09;72.21;101113.41;5003238;28;20528;-72
2022/11/06 05:36:44;;;;;;;19.45;11.25;;;;;;;2.94;72.94;101120.59;5001703;28;20047;-72
2022/11/06 05:39:11;;;;;;;23.27;10.20;;;;;;;2.51;73.82;101117.22;5002973;28;20053;-71
2022/11/06 05:41:38;;;;;;;19.38;9.98;;;;;;;2.88;72.96;101115.69;5003764;28;20050;-72
2022/11/06 05:44:04;;;;;;;21.92;11.32;;;;;;;2.70;72.80;101112.44;5004842;28;20050;-72
2022/11/06 05:46:31;;;;;;;19.77;9.93;;;;;;;2.78;73.31;101115.44;5007377;28;20046;-70
2022/11/06 05:49:16;;;;;;;19.02;10.30;;;;;;;2.90;72.87;101124.41;5007883;28;20047;-73
2022/11/06 05:51:42;;;;;;;20.60;10.85;;;;;;;3.00;72.24;101124.66;5009924;28;20429;-72
2022/11/06 05:54:09;;;;;;;18.00;10.57;;;;;;;2.91;73.05;101118.16;5011362;28;20050;-72
2022/11/06 05:56:35;;;;;;;24.55;10.60;;;;;;;2.98;72.69;101114.13;5009923;28;20054;-71
2022/11/06 05:59:03;;;;;;;22.02;10.82;;;;;;;2.74;73.09;101113.94;5010920;28;20046;-71
2022/11/06 06:01:29;;;;;;;19.80;9.82;;;;;;;2.80;72.98;101110.91;4994412;28;20050;-72
2022/11/06 06:03:56;;;;;;;20.80;10.38;;;;;;;2.62;73.40;101117.41;5010928;28;20042;-72
2022/11/06 06:06:22;;;;;;;23.48;10.60;;;;;;;2.77;73.81;101110.25;5010343;28;20050;-71
2022/11/06 06:08:49;;;;;;;20.75;10.52;;;;;;;2.75;73.05;101120.09;5010997;28;20046;-71
2022/11/06 06:11:15;;;;;;;26.95;11.48;;;;;;;2.64;73.11;101118.97;5011461;28;20057;-71
2022/11/06 06:13:41;;;;;;;22.85;11.23;;;;;;;2.82;72.69;101116.09;5009056;28;20046;-72
2022/11/06 06:16:08;;;;;;;28.42;12.18;;;;;;;2.90;72.60;101124.41;5009758;28;20046;-72
2022/11/06 06:18:34;;;;;;;33.05;15.38;;;;;;;2.78;72.92;101110.13;5010773;28;20119;-72
2022/11/06 06:21:01;;;;;;;22.17;11.30;;;;;;;2.86;72.49;101118.47;5010712;28;20042;-72
2022/11/06 06:23:27;;;;;;;18.77;11.18;;;;;;;2.65;73.51;101127.78;5009671;28;20046;-71
2022/11/06 06:25:56;;;;;;;23.45;10.63;;;;;;;2.69;73.25;101121.34;5010275;28;20129;-72
2022/11/06 06:28:22;;;;;;;23.83;11.30;;;;;;;2.66;73.95;101121.56;5010935;28;20042;-72
2022/11/06 06:30:49;;;;;;;22.85;12.13;;;;;;;2.81;72.77;101125.84;5007586;28;20050;-72
2022/11/06 06:33:15;;;;;;;24.48;11.98;;;;;;;2.85;72.83;101134.44;5008454;28;20062;-72
2022/11/06 06:35:41;;;;;;;22.98;11.52;;;;;;;2.63;72.93;101132.34;5007287;28;20052;-72
2022/11/06 06:38:08;;;;;;;28.33;11.82;;;;;;;2.71;73.12;101140.63;5006205;28;20058;-72
2022/11/06 06:40:35;;;;;;;24.50;11.02;;;;;;;2.64;73.43;101141.97;5009241;28;20050;-72
2022/11/06 06:43:01;;;;;;;21.05;11.45;;;;;;;2.94;72.40;101135.66;5008540;28;20046;-72
2022/11/06 06:45:28;;;;;;;20.20;11.32;;;;;;;2.91;72.42;101144.66;5008093;28;20056;-72
2022/11/06 06:48:00;;;;;;;33.45;13.73;;;;;;;2.81;72.87;101143.53;5010184;28;20049;-72
2022/11/06 06:50:26;;;;;;;;;;;;;;;2.95;72.31;101147.94;5008589;28;20042;-72
2022/11/06 06:52:57;;;;;;;20.67;11.23;;;;;;;2.99;72.71;101146.78;5005343;28;19937;-72
2022/11/06 06:55:24;;;;;;;22.00;11.73;;;;;;;2.92;73.06;101133.09;5006416;28;20054;-72
2022/11/06 06:58:01;;;;;;;24.60;12.57;;;;;;;2.91;73.09;101139.34;5007628;28;20705;-72
2022/11/06 07:00:28;;;;;;;20.08;11.55;;;;;;;2.94;73.11;101138.31;5008928;28;20046;-73
2022/11/06 07:02:54;;;;;;;23.92;11.88;;;;;;;3.07;72.51;101140.03;5009497;28;20499;-73
2022/11/06 07:05:21;;;;;;;26.90;11.45;;;;;;;2.94;72.87;101146.25;5010828;28;20050;-72
2022/11/06 07:07:48;;;;;;;23.13;11.88;;;;;;;2.98;72.54;101143.28;5010154;28;20057;-72
2022/11/06 07:10:14;;;;;;;23.00;11.25;;;;;;;2.84;73.11;101149.50;5010307;28;20060;-72
2022/11/06 07:12:41;;;;;;;21.27;11.63;;;;;;;3.13;72.63;101152.91;5010092;28;20047;-72
2022/11/06 07:15:08;;;;;;;26.63;11.85;;;;;;;3.33;72.29;101135.63;5010820;28;20057;-73
2022/11/06 07:17:34;;;;;;;24.10;11.68;;;;;;;3.18;72.36;101146.44;5012421;28;20039;-73
2022/11/06 07:20:02;;;;;;;24.58;11.15;;;;;;;3.31;72.34;101144.69;5001379;28;20053;-72
2022/11/06 07:22:28;;;;;;;19.90;11.90;;;;;;;3.32;71.75;101149.88;4998502;28;20046;-72
2022/11/06 07:25:03;;;;;;;20.75;11.07;;;;;;;3.36;71.61;101138.09;4997714;28;20391;-72
2022/11/06 07:27:29;;;;;;;25.48;11.55;;;;;;;3.37;71.94;101136.28;4997240;28;20046;-73
2022/11/06 07:29:56;;;;;;;17.80;11.13;;;;;;;3.57;71.32;101137.59;4993424;28;20053;-72
2022/11/06 07:32:22;;;;;;;21.00;11.02;;;;;;;3.40;71.98;101133.44;4997210;28;20046;-72
2022/11/06 07:34:49;;;;;;;24.77;10.95;;;;;;;3.44;72.03;101134.06;4996786;28;20046;-72
2022/11/06 07:37:15;;;;;;;24.38;11.23;;;;;;;3.60;71.75;101134.72;4988359;28;20057;-73
2022/11/06 07:39:41;;;;;;;23.50;11.35;;;;;;;3.63;71.78;101129.22;4981013;28;20047;-72
2022/11/06 07:42:08;;;;;;;24.42;11.90;;;;;;;3.57;71.81;101137.59;4996167;28;20042;-72
2022/11/06 07:44:34;;;;;;;21.38;10.80;;;;;;;3.73;71.53;101127.63;4994765;28;20050;-73
2022/11/06 07:47:01;;;;;;;19.60;11.38;;;;;;;3.69;71.42;101130.59;4997276;28;20046;-72
2022/11/06 07:49:27;;;;;;;25.42;12.15;;;;;;;3.60;71.63;101130.28;4995594;28;20537;-73
2022/11/06 07:51:54;;;;;;;20.00;11.77;;;;;;;3.62;71.41;101139.00;4996908;28;20426;-72
2022/11/06 07:54:20;;;;;;;24.83;11.73;;;;;;;3.80;71.33;101125.41;4995878;28;20062;-72
2022/11/06 07:56:46;;;;;;;21.23;11.27;;;;;;;3.73;71.42;101127.63;4996531;28;20046;-72
2022/11/06 07:59:13;;;;;;;22.10;11.60;;;;;;;3.93;71.14;101128.91;4997998;28;20054;-73
2022/11/06 08:01:39;;;;;;;18.95;11.43;;;;;;;4.20;70.16;101122.59;4997137;28;20047;-73
2022/11/06 08:04:06;;;;;;;27.45;11.98;;;;;;;4.16;70.80;101124.63;4998210;28;20506;-73
2022/11/06 08:06:33;;;;;;;25.52;12.18;;;;;;;4.31;69.80;101117.34;4997674;28;20046;-73
2022/11/06 08:08:59;;;;;;;22.40;11.80;;;;;;;4.29;69.91;101122.78;4998958;28;20052;-72
2022/11/06 08:11:26;;;;;;;17.98;10.43;;;;;;;4.54;69.40;101129.03;4997806;28;20054;-73
2022/11/06 08:13:53;;;;;;;19.70;10.88;;;;;;;4.74;68.65;101122.25;4998939;28;20050;-73
2022/11/06 08:16:19;;;;;;;18.65;11.02;;;;;;;4.87;68.17;101116.88;4997072;28;20057;-73
2022/11/06 08:18:45;;;;;;;25.23;12.05;;;;;;;4.85;68.40;101114.34;4999052;28;20054;-73
2022/11/06 08:21:12;;;;;;;18.42;10.15;;;;;;;4.99;67.38;101115.97;4999384;28;20077;-73
2022/11/06 08:23:38;;;;;;;16.23;10.20;;;;;;;4.86;67.27;101104.53;5000646;28;20055;-74
2022/11/06 08:26:06;;;;;;;17.80;9.98;;;;;;;4.98;67.32;101119.59;5000370;28;20046;-73
2022/11/06 08:28:33;;;;;;;16.33;10.23;;;;;;;4.95;67.36;101120.66;4999182;28;20046;-74
2022/11/06 08:31:06;;;;;;;17.02;9.82;;;;;;;5.09;66.44;101116.13;4998742;28;20050;-71
2022/11/06 08:33:35;;;;;;;19.77;10.10;;;;;;;4.94;67.51;101108.34;4994691;28;20050;-73
2022/11/06 08:36:03;;;;;;;21.15;10.45;;;;;;;5.46;65.91;101108.88;4999470;28;20054;-71
2022/11/06 08:38:30;;;;;;;18.75;10.27;;;;;;;5.40;65.54;101112.00;4999985;28;20042;-71
2022/11/06 08:40:56;;;;;;;16.45;9.40;;;;;;;5.18;66.15;101099.47;4998603;28;20046;-73
2022/11/06 08:43:26;;;;;;;19.83;10.40;;;;;;;5.70;64.86;101093.69;5000833;28;20054;-73
2022/11/06 08:45:52;;;;;;;18.30;9.32;;;;;;;5.89;64.39;101101.06;5000495;28;20430;-73
2022/11/06 08:48:19;;;;;;;14.40;9.75;;;;;;;5.66;64.80;101086.88;5001482;28;20050;-74
2022/11/06 08:50:45;;;;;;;20.77;10.27;;;;;;;5.90;64.62;101083.25;5002339;28;20046;-71
2022/11/06 08:53:12;;;;;;;24.88;10.30;;;;;;;5.59;65.32;101076.84;5015024;28;20045;-68
2022/11/06 08:55:39;;;;;;;16.85;9.55;;;;;;;5.61;65.06;101080.22;5015681;28;20057;-72
2022/11/06 08:58:06;;;;;;;16.25;9.05;;;;;;;5.63;65.09;101084.47;5014477;28;20032;-72
2022/11/06 09:00:34;;;;;;;18.00;9.27;;;;;;;5.94;64.36;101082.03;5014699;28;20094;-70
2022/11/06 09:03:03;;;;;;;15.60;9.10;;;;;;;5.77;64.65;101089.56;5014179;28;20144;-72
2022/11/06 09:05:30;;;;;;;18.42;9.10;;;;;;;5.94;64.05;101093.56;5010188;28;20060;-73
2022/11/06 09:07:57;;;;;;;21.42;9.52;;;;;;;6.26;63.16;101087.53;5014099;28;20046;-72
2022/11/06 09:10:25;;;;;;;22.48;10.15;;;;;;;6.59;62.24;101089.25;5014307;28;20037;-71
2022/11/06 09:12:51;;;;;;;20.67;9.98;;;;;;;6.98;61.46;101084.31;5014068;28;20056;-70
2022/11/06 09:15:19;;;;;;;19.30;8.95;;;;;;;7.68;58.75;101079.28;5015411;28;20034;-69
2022/11/06 09:17:47;;;;;;;20.05;9.40;;;;;;;8.08;57.90;101074.84;5005352;28;20044;-71
2022/11/06 09:20:17;;;;;;;15.13;8.23;;;;;;;7.70;58.12;101071.97;5011332;28;20046;-69
2022/11/06 09:22:45;;;;;;;16.00;8.27;;;;;;;8.47;56.29;101080.31;5014852;28;20049;-71
2022/11/06 09:25:12;;;;;;;16.70;7.32;;;;;;;8.35;56.07;101086.72;5015246;28;20027;-72
2022/11/06 09:41:03;;;;;;;12.13;6.45;;;;;;;8.80;53.76;101087.09;5295080;23;20099;-72
2022/11/06 09:44:02;;;;;;;14.40;7.40;;;;;;;8.81;53.90;101087.94;4956230;28;20035;-73
2022/11/06 09:49:17;;;;;;;10.88;6.50;;;;;;;9.38;52.32;101083.59;5031764;23;19949;-74
2022/11/06 09:51:49;;;;;;;10.98;6.45;;;;;;;10.67;49.77;101080.06;4976484;28;20037;-70
2022/11/06 09:54:30;;;;;;;11.95;6.15;;;;;;;10.04;50.59;101088.88;4979184;28;20051;-72
2022/11/06 09:57:12;;;;;;;8.70;5.45;;;;;;;10.43;50.04;101091.34;4978480;28;20059;-73
2022/11/06 09:59:40;;;;;;;11.93;5.60;;;;;;;9.61;51.33;101092.13;4979010;28;20116;-73
2022/11/06 10:02:22;;;;;;;11.48;5.40;;;;;;;9.79;51.58;101089.56;4977537;28;20058;-72
2022/11/06 10:05:13;;;;;;;11.88;5.35;;;;;;;9.80;50.89;101073.31;4978013;28;20038;-73
2022/11/06 10:07:42;;;;;;;10.65;6.00;;;;;;;9.45;51.79;101082.03;4977610;28;20041;-73
2022/11/06 10:10:18;;;;;;;10.88;5.82;;;;;;;9.51;51.90;101076.09;4978360;28;20054;-73
2022/11/06 10:13:08;;;;;;;12.02;7.15;;;;;;;9.68;52.09;101065.59;4976940;28;20050;-72
2022/11/06 10:15:48;;;;;;;11.38;6.10;;;;;;;10.03;51.34;101068.44;4974248;28;20071;-72
2022/11/06 10:18:27;;;;;;;7.82;5.53;;;;;;;9.70;51.46;101069.81;4977971;28;20058;-70
2022/11/06 10:21:09;;;;;;;7.95;5.03;;;;;;;10.47;50.32;101060.53;4978293;28;20039;-74
2022/11/06 10:23:52;;;;;;;10.40;5.22;;;;;;;10.30;49.90;101053.31;4977967;28;20051;-73
2022/11/06 10:26:39;;;;;;;8.57;5.18;;;;;;;10.84;49.22;101046.19;4977972;28;20039;-74
2022/11/06 10:29:50;;;;;;;9.02;4.85;;;;;;;10.75;49.09;101044.41;5229265;23;20042;-72
2022/11/06 10:32:34;;;;;;;7.57;5.10;;;;;;;10.72;49.20;101044.72;4989736;28;20084;-69
2022/11/06 10:35:14;;;;;;;10.35;4.93;;;;;;;10.21;50.31;101043.50;4997312;28;20043;-72
2022/11/06 10:38:13;;;;;;;11.32;5.28;;;;;;;10.77;49.00;101045.13;4997438;28;20034;-74
2022/11/06 10:40:45;;;;;;;9.60;4.97;;;;;;;11.01;48.48;101038.28;4988375;28;20043;-73
2022/11/06 10:43:28;;;;;;;10.25;5.38;;;;;;;10.81;48.50;101033.09;4995930;28;20050;-73
2022/11/06 10:46:21;;;;;;;11.18;5.65;;;;;;;10.73;49.00;101035.69;4994742;28;20046;-73
2022/11/06 10:48:58;;;;;;;11.52;4.95;;;;;;;11.05;48.28;101031.59;5348687;23;20066;-73
2022/11/06 10:51:32;;;;;;;9.88;4.68;;;;;;;11.10;48.40;101022.09;4997768;28;20058;-73
2022/11/06 10:54:17;;;;;;;10.98;5.03;;;;;;;11.36;47.82;101024.78;5009546;23;20062;-71
2022/11/06 10:57:19;;;;;;;11.90;5.10;;;;;;;11.15;48.45;101026.97;4997943;28;20050;-73
2022/11/06 10:59:47;;;;;;;10.35;4.57;;;;;;;11.46;47.36;101014.78;4968222;28;20053;-71
2022/11/06 11:02:30;;;;;;;12.82;5.40;;;;;;;11.48;47.35;101003.84;4997488;28;20038;-74
2022/11/06 11:04:57;;;;;;;11.25;5.65;;;;;;;11.37;47.27;101010.34;4995616;28;20023;-73
2022/11/06 11:07:28;;;;;;;9.32;4.45;;;;;;;12.06;46.26;101005.00;4997199;28;20049;-72
2022/11/06 11:09:54;;;;;;;9.85;4.20;;;;;;;13.07;44.34;100999.41;4996207;28;20064;-71
2022/11/06 11:12:31;;;;;;;9.57;4.82;;;;;;;12.24;45.43;101000.31;4997079;28;20030;-69
2022/11/06 11:15:10;;;;;;;12.98;4.80;;;;;;;11.99;45.78;100987.81;4997218;28;20039;-71
2022/11/06 11:20:33;;;;;;;12.95;5.00;;;;;;;11.42;47.26;100988.38;5007182;28;20072;-74
2022/11/06 11:25:35;;;;;;;14.05;6.20;;;;;;;11.30;47.43;100982.44;5801025;23;20034;-73
2022/11/06 11:28:02;;;;;;;13.98;5.90;;;;;;;11.31;47.44;100983.25;4997502;28;20044;-72
2022/11/06 11:30:30;;;;;;;15.20;6.43;;;;;;;11.63;46.63;100982.63;5002149;28;20043;-72
2022/11/06 11:32:57;;;;;;;10.88;5.32;;;;;;;12.55;44.70;100984.41;4992599;28;20042;-71
2022/11/06 11:35:29;;;;;;;13.02;6.45;;;;;;;11.66;45.91;100987.72;4997034;28;20058;-71
2022/11/06 11:38:12;;;;;;;9.88;5.30;;;;;;;11.74;45.87;100982.34;4996931;28;20039;-71
2022/11/06 11:40:40;;;;;;;9.30;4.53;;;;;;;12.63;44.41;100979.06;4997032;28;20034;-72
2022/11/06 11:43:29;;;;;;;9.65;4.85;;;;;;;12.73;43.43;100983.41;4995926;28;20110;-71
2022/11/06 11:46:13;;;;;;;11.35;4.47;;;;;;;13.79;41.48;100969.78;4996091;28;20053;-71
2022/11/06 11:48:48;;;;;;;14.68;4.45;;;;;;;13.35;41.74;100968.41;4995935;28;20045;-73
2022/11/06 11:51:31;;;;;;;11.30;4.05;;;;;;;14.33;40.77;100966.31;4995239;28;20057;-71
2022/11/06 11:54:03;;;;;;;10.90;4.13;;;;;;;15.25;38.47;100957.06;4983028;28;20039;-73
2022/11/06 11:56:30;;;;;;;8.50;3.30;;;;;;;13.96;40.31;100962.47;4984665;28;20061;-72
2022/11/06 11:59:19;;;;;;;7.90;3.50;;;;;;;14.36;39.63;100955.13;4992550;28;20067;-69
2022/11/06 12:01:47;;;;;;;10.68;3.40;;;;;;;14.36;39.56;100961.38;4993088;28;20049;-73
2022/11/06 12:04:25;;;;;;;9.70;3.45;;;;;;;14.43;39.23;100951.56;4994467;28;20050;-74
2022/11/06 12:06:54;;;;;;;8.80;3.22;;;;;;;14.35;39.09;100945.34;4994396;28;20052;-69
2022/11/06 12:09:22;;;;;;;8.82;2.90;;;;;;;14.64;38.56;100937.38;4996568;28;20045;-72
2022/11/06 12:11:48;;;;;;;9.40;3.35;;;;;;;14.46;38.57;100923.34;5430564;23;20043;-72
2022/11/06 12:14:26;;;;;;;4.63;3.03;;;;;;;13.99;39.57;100927.88;4993752;28;20063;-72
2022/11/06 12:17:03;;;;;;;12.05;5.00;;;;;;;13.67;40.94;100914.56;4988275;28;20042;-73
2022/11/06 12:19:32;;;;;;;8.68;3.90;;;;;;;14.84;38.35;100916.09;4984660;28;20047;-72